Time;durP1;ratioP1;P1;durP2;ratioP2;P2;SDS_P1;SDS_P2;PMS_P1;PMS_P2;Temp;Humidity;BMP_temperature;BMP_pressure;BME280_temperature;BME280_humidity;BME280_pressure;Samples;Min_cycle;Max_cycle;Signal;HPM_P1;HPM_P2
2022/12/05 00:01:24;;;;;;;39.60;20.20;;;1.50;99.90;;;;;;4982176;28;20052;-67
2022/12/05 00:03:53;;;;;;;52.63;21.38;;;1.50;99.90;;;;;;4987041;28;20408;-67
2022/12/05 00:06:22;;;;;;;48.35;21.60;;;1.50;99.90;;;;;;4984869;28;20493;-67
2022/12/05 00:08:50;;;;;;;45.70;19.80;;;1.50;99.90;;;;;;4995984;28;20234;-67
2022/12/05 00:11:20;;;;;;;35.30;17.13;;;1.50;99.90;;;;;;4984212;28;20781;-68
2022/12/05 00:13:48;;;;;;;50.67;21.10;;;1.50;99.90;;;;;;4979905;28;20054;-68
2022/12/05 00:16:18;;;;;;;49.50;20.88;;;1.50;99.90;;;;;;4985133;28;20046;-68
2022/12/05 00:18:46;;;;;;;41.25;18.38;;;1.50;99.90;;;;;;4982076;28;20064;-68
2022/12/05 00:21:15;;;;;;;41.55;18.05;;;1.50;99.90;;;;;;4981016;28;20053;-68
2022/12/05 00:23:42;;;;;;;38.97;19.83;;;1.50;99.90;;;;;;4983159;28;20547;-67
2022/12/05 00:26:10;;;;;;;37.50;19.45;;;1.50;99.90;;;;;;4981284;28;20124;-67
2022/12/05 00:28:38;;;;;;;33.17;17.17;;;1.50;99.90;;;;;;4981308;28;20072;-67
2022/12/05 00:31:08;;;;;;;34.20;17.48;;;1.50;99.90;;;;;;4980124;28;20050;-68
2022/12/05 00:33:35;;;;;;;44.72;20.83;;;1.50;99.90;;;;;;4978796;28;20546;-67
2022/12/05 00:36:04;;;;;;;47.65;20.17;;;1.50;99.90;;;;;;4982633;28;20115;-67
2022/12/05 00:38:31;;;;;;;36.53;18.02;;;1.50;99.90;;;;;;4982238;28;20049;-67
2022/12/05 00:41:14;;;;;;;44.05;21.83;;;1.50;99.90;;;;;;4981603;28;20271;-67
2022/12/05 00:43:41;;;;;;;50.80;21.50;;;1.50;99.90;;;;;;4980021;28;20054;-68
2022/12/05 00:46:11;;;;;;;50.20;22.63;;;1.50;99.90;;;;;;4978727;28;20088;-67
2022/12/05 00:48:39;;;;;;;46.80;21.92;;;1.50;99.90;;;;;;4983825;28;20489;-67
2022/12/05 00:51:10;;;;;;;42.83;19.70;;;1.50;99.90;;;;;;4983198;28;20164;-68
2022/12/05 00:53:37;;;;;;;42.33;20.92;;;1.50;99.90;;;;;;4981047;28;20054;-68
2022/12/05 00:56:09;;;;;;;38.92;18.77;;;1.60;99.90;;;;;;4985525;28;20277;-68
2022/12/05 00:58:36;;;;;;;30.42;15.90;;;1.60;99.90;;;;;;4981606;28;20723;-67
2022/12/05 01:01:13;;;;;;;30.60;14.85;;;1.60;99.90;;;;;;4989705;28;20141;-67
2022/12/05 01:03:42;;;;;;;25.13;12.70;;;1.60;99.90;;;;;;4981490;28;20055;-67
2022/12/05 01:06:10;;;;;;;30.67;13.75;;;1.70;99.90;;;;;;4981325;28;20361;-67
2022/12/05 01:08:37;;;;;;;30.15;14.68;;;1.70;99.90;;;;;;4980488;28;20564;-67
2022/12/05 01:11:05;;;;;;;31.63;14.65;;;1.70;99.90;;;;;;4981846;28;20059;-67
2022/12/05 01:13:33;;;;;;;27.40;13.90;;;1.70;99.90;;;;;;4985669;28;20088;-67
2022/12/05 01:16:00;;;;;;;22.83;13.18;;;1.80;99.90;;;;;;4980056;28;20598;-67
2022/12/05 01:18:28;;;;;;;27.02;14.45;;;1.80;99.90;;;;;;4985994;28;20369;-67
2022/12/05 01:20:54;;;;;;;23.35;13.55;;;1.70;99.90;;;;;;4983152;28;20061;-67
2022/12/05 01:23:21;;;;;;;;;;;1.70;99.90;;;;;;4980088;28;20048;-67
2022/12/05 01:25:50;;;;;;;24.37;14.10;;;1.70;99.90;;;;;;4982722;28;20552;-68
2022/12/05 01:28:17;;;;;;;25.50;13.13;;;1.70;99.90;;;;;;4981312;28;20077;-68
2022/12/05 01:30:46;;;;;;;27.33;13.45;;;1.70;99.90;;;;;;4980417;28;20604;-67
2022/12/05 01:33:13;;;;;;;20.23;11.80;;;1.70;99.90;;;;;;4979357;28;20151;-67
2022/12/05 01:35:41;;;;;;;20.45;11.32;;;1.70;99.90;;;;;;4982120;28;20132;-67
2022/12/05 01:38:10;;;;;;;20.25;10.25;;;1.70;99.90;;;;;;4980273;28;20104;-68
2022/12/05 01:40:38;;;;;;;17.83;9.98;;;1.70;99.90;;;;;;4980625;28;20108;-67
2022/12/05 01:43:14;;;;;;;21.80;11.35;;;1.70;99.90;;;;;;4982814;28;20424;-67
2022/12/05 01:45:44;;;;;;;22.87;11.60;;;1.70;99.90;;;;;;4978321;28;20350;-67
2022/12/05 01:48:17;;;;;;;24.55;11.80;;;1.80;99.90;;;;;;4980160;28;20360;-67
2022/12/05 01:50:45;;;;;;;21.13;11.48;;;1.80;99.90;;;;;;4981169;28;20050;-67
2022/12/05 01:53:13;;;;;;;20.60;12.02;;;1.80;99.90;;;;;;4979379;28;20046;-68
2022/12/05 01:55:40;;;;;;;18.08;10.20;;;1.80;99.90;;;;;;4981789;28;20057;-67
2022/12/05 01:58:09;;;;;;;22.92;13.07;;;1.90;99.90;;;;;;4982441;28;20077;-67
2022/12/05 02:00:40;;;;;;;23.17;12.95;;;1.90;99.90;;;;;;4981894;28;20437;-66
2022/12/05 02:03:08;;;;;;;;;;;1.90;99.90;;;;;;4983066;28;20048;-66
2022/12/05 02:05:35;;;;;;;;;;;2.00;99.90;;;;;;4976818;28;20573;-68
2022/12/05 02:08:06;;;;;;;26.63;12.43;;;2.00;99.90;;;;;;4981263;28;19932;-68
2022/12/05 02:10:42;;;;;;;27.17;12.43;;;2.00;99.90;;;;;;4982207;28;20519;-68
2022/12/05 02:14:00;;;;;;;25.73;13.25;;;2.10;99.90;;;;;;4977749;28;20650;-69
2022/12/05 02:16:45;;;;;;;23.13;12.75;;;2.10;99.90;;;;;;4985706;28;20446;-69
2022/12/05 02:19:36;;;;;;;30.75;14.18;;;2.10;99.90;;;;;;4980067;28;20038;-69
2022/12/05 02:22:21;;;;;;;23.02;13.43;;;2.10;99.90;;;;;;4996581;28;20076;-69
2022/12/05 02:25:21;;;;;;;31.48;15.02;;;2.10;99.90;;;;;;4976192;28;20568;-70
2022/12/05 02:28:07;;;;;;;28.35;13.68;;;2.20;99.90;;;;;;4980839;28;20305;-70
2022/12/05 02:30:45;;;;;;;24.67;13.40;;;2.30;99.90;;;;;;4980343;28;20069;-70
2022/12/05 02:33:30;;;;;;;25.98;12.93;;;2.30;99.90;;;;;;4984019;28;20464;-70
2022/12/05 02:36:08;;;;;;;25.92;14.88;;;2.40;99.90;;;;;;4999783;28;20054;-70
2022/12/05 02:38:49;;;;;;;25.48;14.38;;;2.40;99.90;;;;;;4997826;28;20551;-70
2022/12/05 02:41:45;;;;;;;28.65;13.63;;;2.50;99.90;;;;;;4990627;28;20096;-70
2022/12/05 02:44:23;;;;;;;24.60;13.07;;;2.50;99.90;;;;;;4976943;28;20162;-70
2022/12/05 02:46:52;;;;;;;23.10;12.77;;;2.50;99.90;;;;;;4981587;28;20440;-70
2022/12/05 02:49:23;;;;;;;20.13;11.55;;;2.50;99.90;;;;;;4984743;28;20092;-70
2022/12/05 02:51:56;;;;;;;20.48;11.25;;;2.60;99.90;;;;;;4985895;28;20148;-71
2022/12/05 02:54:32;;;;;;;19.08;11.43;;;2.60;99.90;;;;;;4985924;28;20499;-71
2022/12/05 02:56:59;;;;;;;20.67;9.85;;;2.60;99.90;;;;;;4987981;28;20152;-71
2022/12/05 02:59:26;;;;;;;16.67;10.35;;;2.60;99.90;;;;;;4986062;28;20129;-70
2022/12/05 03:01:54;;;;;;;16.00;9.38;;;2.70;99.90;;;;;;4985743;28;20085;-72
2022/12/05 03:04:24;;;;;;;16.75;10.10;;;2.70;99.90;;;;;;4984458;28;20055;-70
2022/12/05 03:07:07;;;;;;;14.40;8.15;;;2.70;99.90;;;;;;4986187;28;20429;-70
2022/12/05 03:09:41;;;;;;;15.73;7.57;;;2.70;99.90;;;;;;4980423;28;20046;-71
2022/12/05 03:12:11;;;;;;;12.60;7.53;;;2.70;99.90;;;;;;4983758;28;20049;-70
2022/12/05 03:14:45;;;;;;;13.23;7.10;;;2.70;99.90;;;;;;4982296;28;20366;-69
2022/12/05 03:17:21;;;;;;;9.40;5.35;;;2.80;99.90;;;;;;4986064;28;20104;-70
2022/12/05 03:19:50;;;;;;;10.55;6.75;;;2.80;99.90;;;;;;4984165;28;20141;-69
2022/12/05 03:22:31;;;;;;;9.45;6.10;;;2.80;99.90;;;;;;4985047;28;20437;-71
2022/12/05 03:24:59;;;;;;;8.15;4.97;;;2.90;99.90;;;;;;4980883;28;20451;-69
2022/12/05 03:27:51;;;;;;;9.20;5.40;;;2.90;99.90;;;;;;4979869;28;20424;-69
2022/12/05 03:30:20;;;;;;;6.13;4.15;;;2.90;99.90;;;;;;4984309;28;20279;-71
2022/12/05 03:32:59;;;;;;;6.55;4.22;;;2.90;99.90;;;;;;4979925;28;20523;-71
2022/12/05 03:35:43;;;;;;;6.43;4.38;;;2.90;99.90;;;;;;4982922;28;20061;-71
2022/12/05 03:38:18;;;;;;;6.13;3.85;;;3.00;99.90;;;;;;4984845;28;20385;-71
2022/12/05 03:41:20;;;;;;;7.55;3.20;;;3.00;99.90;;;;;;4983788;28;20257;-71
2022/12/05 03:43:53;;;;;;;4.68;3.22;;;3.00;99.90;;;;;;4984074;28;20046;-71
2022/12/05 03:46:36;;;;;;;6.53;3.78;;;3.00;99.90;;;;;;4978187;28;20328;-71
2022/12/05 03:49:06;;;;;;;3.95;2.45;;;3.00;99.90;;;;;;4982176;28;20045;-71
2022/12/05 03:51:44;;;;;;;5.10;3.40;;;3.00;99.90;;;;;;4983411;28;20077;-71
2022/12/05 03:54:15;;;;;;;4.57;2.85;;;3.00;99.90;;;;;;4982535;28;20054;-71
2022/12/05 03:56:51;;;;;;;4.03;2.28;;;3.10;99.90;;;;;;4984186;28;20414;-71
2022/12/05 03:59:39;;;;;;;3.85;2.92;;;3.10;99.90;;;;;;4985017;28;20580;-71
2022/12/05 04:02:13;;;;;;;5.22;2.78;;;3.10;99.90;;;;;;4981859;28;20068;-70
2022/12/05 04:04:59;;;;;;;4.25;2.80;;;3.10;99.90;;;;;;4983637;28;20199;-70
2022/12/05 04:07:30;;;;;;;3.70;3.00;;;3.10;99.90;;;;;;4980872;28;20049;-70
2022/12/05 04:10:04;;;;;;;5.20;2.42;;;3.10;99.90;;;;;;4980003;28;20663;-70
2022/12/05 04:12:35;;;;;;;2.80;2.45;;;3.10;99.90;;;;;;4982382;28;20105;-70
2022/12/05 04:15:08;;;;;;;8.00;2.92;;;3.00;99.90;;;;;;4981760;28;20142;-70
2022/12/05 04:17:49;;;;;;;7.35;3.17;;;3.00;99.90;;;;;;4982708;28;20136;-70
2022/12/05 04:23:16;;;;;;;4.65;3.42;;;3.00;99.90;;;;;;4992581;28;20097;-70
2022/12/05 04:26:22;;;;;;;4.50;2.75;;;2.90;99.90;;;;;;4982217;28;20037;-70
2022/12/05 04:29:04;;;;;;;3.95;2.72;;;2.90;99.90;;;;;;4974231;28;20534;-70
2022/12/05 04:31:40;;;;;;;7.32;3.50;;;2.90;99.90;;;;;;4985755;28;20557;-70
2022/12/05 04:34:09;;;;;;;4.43;3.03;;;2.90;99.90;;;;;;4985229;28;20044;-70
2022/12/05 04:37:18;;;;;;;3.85;2.58;;;2.90;99.90;;;;;;4981240;28;20091;-69
2022/12/05 04:39:51;;;;;;;4.60;2.97;;;2.80;99.90;;;;;;4962831;28;20139;-70
2022/12/05 04:42:23;;;;;;;6.05;3.25;;;2.80;99.90;;;;;;4961647;28;20053;-69
2022/12/05 04:44:56;;;;;;;3.15;2.08;;;2.90;99.90;;;;;;4972811;28;20053;-69
2022/12/05 04:47:28;;;;;;;3.30;2.70;;;2.90;99.90;;;;;;4976662;28;20049;-70
2022/12/05 04:49:56;;;;;;;9.77;3.05;;;2.90;99.90;;;;;;4982787;28;20042;-70
2022/12/05 04:52:26;;;;;;;4.82;2.25;;;2.90;99.90;;;;;;4981352;28;20052;-70
2022/12/05 04:55:12;;;;;;;6.78;2.75;;;2.90;99.90;;;;;;4982620;28;20497;-70
2022/12/05 04:57:54;;;;;;;3.15;2.33;;;2.90;99.90;;;;;;4982576;28;20149;-70
2022/12/05 05:00:20;;;;;;;3.15;2.25;;;2.90;99.90;;;;;;4982317;28;20443;-70
2022/12/05 05:02:53;;;;;;;;;;;2.90;99.90;;;;;;4981155;28;20497;-70
2022/12/05 05:05:22;;;;;;;5.15;3.35;;;2.90;99.90;;;;;;4980398;28;20728;-72
2022/12/05 05:07:52;;;;;;;3.05;1.90;;;2.90;99.90;;;;;;4985494;28;20064;-69
2022/12/05 05:10:38;;;;;;;5.05;2.22;;;2.90;99.90;;;;;;4983172;28;20050;-69
2022/12/05 05:13:05;;;;;;;2.47;1.75;;;2.90;99.90;;;;;;4997776;28;20156;-69
2022/12/05 05:15:32;;;;;;;3.05;1.65;;;2.90;99.90;;;;;;4983209;28;20049;-69
2022/12/05 05:17:58;;;;;;;3.08;1.60;;;2.90;99.90;;;;;;4979599;28;20037;-69
2022/12/05 05:20:26;;;;;;;2.45;1.70;;;2.90;99.90;;;;;;4981870;28;20211;-69
2022/12/05 05:22:55;;;;;;;1.65;1.52;;;2.90;99.90;;;;;;4986385;28;20561;-69
2022/12/05 05:25:23;;;;;;;1.60;1.50;;;2.90;99.90;;;;;;4980536;28;20223;-69
2022/12/05 05:27:52;;;;;;;2.83;2.08;;;2.90;99.90;;;;;;4978937;28;20640;-69
2022/12/05 05:30:20;;;;;;;2.28;1.83;;;2.90;99.90;;;;;;4995029;28;20034;-69
2022/12/05 05:32:47;;;;;;;3.47;1.80;;;3.00;99.90;;;;;;4980447;28;20292;-69
2022/12/05 05:35:14;;;;;;;1.90;1.60;;;3.00;99.90;;;;;;4982076;28;20053;-69
2022/12/05 05:37:42;;;;;;;1.92;1.45;;;3.00;99.90;;;;;;4978840;28;20145;-69
2022/12/05 05:40:10;;;;;;;2.20;1.60;;;3.00;99.90;;;;;;4981896;28;20192;-71
2022/12/05 05:42:48;;;;;;;3.67;1.67;;;3.00;99.90;;;;;;4979783;28;20139;-69
2022/12/05 05:45:15;;;;;;;2.15;1.83;;;3.00;99.90;;;;;;4980751;28;20121;-69
2022/12/05 05:47:42;;;;;;;2.35;2.15;;;3.10;99.90;;;;;;4980111;28;20534;-69
2022/12/05 05:50:10;;;;;;;1.90;1.65;;;3.10;99.90;;;;;;4981636;28;20038;-71
2022/12/05 05:52:43;;;;;;;4.90;1.50;;;3.00;99.90;;;;;;4988152;28;20887;-69
2022/12/05 05:55:10;;;;;;;2.20;1.63;;;3.00;99.90;;;;;;4978407;28;20379;-71
2022/12/05 05:57:36;;;;;;;;;;;3.00;99.90;;;;;;4980754;28;20053;-69
2022/12/05 06:00:07;;;;;;;2.60;1.63;;;3.10;99.90;;;;;;4982434;28;20388;-71
2022/12/05 06:02:35;;;;;;;2.95;1.90;;;3.00;99.90;;;;;;4981234;28;20137;-71
2022/12/05 06:05:02;;;;;;;2.10;1.85;;;3.10;99.90;;;;;;4980364;28;20547;-71
2022/12/05 06:07:29;;;;;;;2.78;1.80;;;3.10;99.90;;;;;;4982728;28;20450;-70
2022/12/05 06:09:56;;;;;;;2.45;1.80;;;3.10;99.90;;;;;;4985947;28;20160;-71
2022/12/05 06:12:23;;;;;;;3.22;2.20;;;3.10;99.90;;;;;;4985191;28;20496;-70
2022/12/05 06:14:50;;;;;;;;;;;3.10;99.90;;;;;;4984630;28;20144;-70
2022/12/05 06:17:17;;;;;;;5.22;2.15;;;3.00;99.90;;;;;;4983773;28;19947;-71
2022/12/05 06:19:44;;;;;;;2.80;1.80;;;3.10;99.90;;;;;;4984706;28;20206;-71
2022/12/05 06:22:11;;;;;;;1.77;1.25;;;3.10;99.90;;;;;;4983898;28;20139;-70
2022/12/05 06:24:38;;;;;;;;;;;3.10;99.90;;;;;;4983395;28;20092;-70
2022/12/05 06:27:05;;;;;;;1.45;1.30;;;3.10;99.90;;;;;;4985246;28;20002;-70
2022/12/05 06:29:32;;;;;;;;;;;3.10;99.90;;;;;;4982347;28;20057;-70
2022/12/05 06:32:00;;;;;;;4.35;2.00;;;3.10;99.90;;;;;;4988088;28;19978;-70
2022/12/05 06:34:27;;;;;;;3.10;2.10;;;3.20;99.90;;;;;;4983079;28;20204;-70
2022/12/05 06:36:54;;;;;;;3.40;2.05;;;3.10;99.90;;;;;;4985066;28;20172;-70
2022/12/05 06:39:21;;;;;;;;;;;3.20;99.90;;;;;;4970683;28;20042;-70
2022/12/05 06:41:48;;;;;;;2.22;1.58;;;3.20;99.90;;;;;;4985805;28;20032;-70
2022/12/05 06:44:14;;;;;;;;;;;3.20;99.90;;;;;;4984846;28;20460;-70
2022/12/05 06:46:41;;;;;;;2.58;1.73;;;3.20;99.90;;;;;;4982399;28;19925;-70
2022/12/05 06:49:08;;;;;;;;;;;3.10;99.90;;;;;;4984017;28;20128;-70
2022/12/05 06:51:35;;;;;;;2.25;1.70;;;3.10;99.90;;;;;;4981934;28;19925;-70
2022/12/05 06:54:02;;;;;;;2.05;1.48;;;3.10;99.90;;;;;;4983507;28;20153;-70
2022/12/05 06:56:29;;;;;;;5.05;3.00;;;3.10;99.90;;;;;;4982188;28;20042;-70
2022/12/05 06:58:56;;;;;;;1.55;1.30;;;3.10;99.90;;;;;;4999050;28;20694;-70
2022/12/05 07:01:41;;;;;;;1.42;1.33;;;3.00;99.90;;;;;;4986361;28;20085;-70
2022/12/05 07:04:15;;;;;;;1.75;1.27;;;3.00;99.90;;;;;;4984238;28;20041;-71
2022/12/05 07:06:44;;;;;;;1.30;1.20;;;3.00;99.90;;;;;;4993637;28;20770;-70
2022/12/05 07:09:19;;;;;;;2.40;1.40;;;3.00;99.90;;;;;;4983829;28;20256;-70
2022/12/05 07:11:50;;;;;;;1.33;1.23;;;3.00;99.90;;;;;;4983857;28;20056;-71
2022/12/05 07:14:17;;;;;;;2.35;1.35;;;3.00;99.90;;;;;;4985551;28;20358;-70
2022/12/05 07:17:04;;;;;;;2.07;1.63;;;3.00;99.90;;;;;;4982977;28;20468;-70
2022/12/05 07:19:31;;;;;;;;;;;3.00;99.90;;;;;;4985851;28;20441;-70
2022/12/05 07:21:57;;;;;;;1.33;1.23;;;3.00;99.90;;;;;;4986395;28;20011;-70
2022/12/05 07:24:24;;;;;;;1.33;0.98;;;3.00;99.90;;;;;;4984119;28;20037;-70
2022/12/05 07:26:51;;;;;;;3.17;2.22;;;3.00;99.90;;;;;;4983307;28;20049;-70
2022/12/05 07:29:18;;;;;;;1.95;1.45;;;2.90;99.90;;;;;;4983958;28;20135;-69
2022/12/05 07:31:45;;;;;;;1.77;1.48;;;2.90;99.90;;;;;;4984114;28;20463;-69
2022/12/05 07:34:12;;;;;;;;;;;2.90;99.90;;;;;;4981581;28;20050;-69
2022/12/05 07:36:39;;;;;;;1.50;1.40;;;2.90;99.90;;;;;;4985776;28;19929;-69
2022/12/05 07:39:05;;;;;;;2.13;1.58;;;2.90;99.90;;;;;;4985747;28;20041;-69
2022/12/05 07:41:32;;;;;;;;;;;2.90;99.90;;;;;;4984967;28;20670;-69
2022/12/05 07:44:04;;;;;;;1.88;1.05;;;2.90;99.90;;;;;;4967400;28;19925;-70
2022/12/05 07:46:31;;;;;;;;;;;2.90;99.90;;;;;;4984084;28;20177;-70
2022/12/05 07:48:58;;;;;;;2.65;0.95;;;2.90;99.90;;;;;;4983663;28;20102;-69
2022/12/05 07:51:25;;;;;;;;;;;3.00;99.90;;;;;;4998742;28;20052;-69
2022/12/05 07:53:51;;;;;;;1.75;1.13;;;3.00;99.90;;;;;;4983571;28;20185;-69
2022/12/05 07:56:19;;;;;;;1.90;1.33;;;3.00;99.90;;;;;;4984763;28;20562;-68
2022/12/05 07:58:48;;;;;;;1.42;1.30;;;3.00;99.90;;;;;;4981477;28;20056;-68
2022/12/05 08:01:16;;;;;;;1.60;1.50;;;3.10;99.90;;;;;;4986812;28;20513;-69
2022/12/05 08:03:44;;;;;;;1.88;1.50;;;3.10;99.90;;;;;;4986555;28;20051;-70
2022/12/05 08:06:16;;;;;;;3.85;1.50;;;3.10;99.90;;;;;;4983424;28;20519;-71
2022/12/05 08:08:43;;;;;;;1.27;1.17;;;3.10;99.90;;;;;;4981400;28;20330;-71
2022/12/05 08:11:14;;;;;;;2.17;1.42;;;3.10;99.90;;;;;;4988725;28;20428;-70
2022/12/05 08:13:41;;;;;;;1.38;1.10;;;3.10;99.90;;;;;;4983220;28;20550;-69
2022/12/05 08:16:13;;;;;;;1.30;1.20;;;3.20;99.90;;;;;;4981540;28;20131;-70
2022/12/05 08:18:41;;;;;;;4.35;1.40;;;3.20;99.90;;;;;;4981253;28;20042;-70
2022/12/05 08:21:11;;;;;;;2.38;1.60;;;3.10;99.90;;;;;;4983482;28;20546;-70
2022/12/05 08:23:39;;;;;;;2.28;1.50;;;3.20;99.90;;;;;;4985036;28;20237;-70
2022/12/05 08:26:08;;;;;;;3.00;1.88;;;3.20;99.90;;;;;;4981281;28;20612;-70
2022/12/05 08:28:36;;;;;;;3.35;1.75;;;3.20;99.90;;;;;;4984669;28;20415;-70
2022/12/05 08:31:14;;;;;;;2.00;1.80;;;3.20;99.90;;;;;;4982174;28;20055;-70
2022/12/05 08:33:42;;;;;;;2.33;1.30;;;3.20;99.90;;;;;;4983772;28;20046;-71
2022/12/05 08:36:14;;;;;;;2.42;1.67;;;3.20;99.90;;;;;;4982020;28;20192;-70
2022/12/05 08:38:42;;;;;;;3.15;1.95;;;3.20;99.90;;;;;;4982831;28;20046;-69
2022/12/05 08:41:14;;;;;;;5.28;1.95;;;3.20;99.90;;;;;;4983555;28;20442;-69
2022/12/05 08:43:41;;;;;;;3.25;1.50;;;3.20;99.90;;;;;;4981819;28;20052;-70
2022/12/05 08:46:09;;;;;;;1.95;1.38;;;3.20;99.90;;;;;;4979923;28;20044;-70
2022/12/05 08:48:37;;;;;;;3.08;1.77;;;3.20;99.90;;;;;;4980551;28;20159;-69
2022/12/05 08:51:13;;;;;;;2.03;1.30;;;3.20;99.90;;;;;;4983669;28;20073;-69
2022/12/05 08:53:40;;;;;;;1.50;1.38;;;3.10;99.90;;;;;;4974587;28;20053;-69
2022/12/05 08:56:11;;;;;;;1.75;1.45;;;3.10;99.90;;;;;;4981154;28;20049;-69
2022/12/05 08:58:39;;;;;;;2.47;1.50;;;3.10;99.90;;;;;;4983668;28;20060;-69
2022/12/05 09:01:08;;;;;;;2.65;1.70;;;3.10;99.90;;;;;;4983392;28;20207;-70
2022/12/05 09:03:36;;;;;;;4.55;1.75;;;3.10;99.90;;;;;;4986818;28;20149;-69
2022/12/05 09:06:14;;;;;;;2.38;1.60;;;3.20;99.90;;;;;;4984378;28;20047;-69
2022/12/05 09:08:42;;;;;;;2.55;1.70;;;3.20;99.90;;;;;;4984993;28;20221;-68
2022/12/05 09:11:11;;;;;;;4.90;1.65;;;3.20;99.90;;;;;;4988749;28;20149;-68
2022/12/05 09:13:37;;;;;;;8.18;1.80;;;3.20;99.90;;;;;;4982679;28;20052;-68
2022/12/05 09:16:14;;;;;;;3.72;1.80;;;3.20;99.90;;;;;;4983491;28;20159;-68
2022/12/05 09:18:42;;;;;;;4.55;2.33;;;3.20;99.90;;;;;;4985415;28;20047;-68
2022/12/05 09:21:09;;;;;;;2.55;1.52;;;3.20;99.90;;;;;;4985185;28;20179;-68
2022/12/05 09:23:36;;;;;;;4.47;2.15;;;3.20;99.90;;;;;;4982067;28;20352;-68
2022/12/05 09:26:05;;;;;;;2.20;1.70;;;3.20;99.90;;;;;;4980854;28;20053;-68
2022/12/05 09:28:33;;;;;;;2.05;1.65;;;3.20;99.90;;;;;;4985046;28;20182;-68
2022/12/05 09:31:06;;;;;;;2.78;1.70;;;3.10;99.90;;;;;;4980801;28;20090;-68
2022/12/05 09:33:35;;;;;;;2.97;1.60;;;3.10;99.90;;;;;;4979934;28;20439;-68
2022/12/05 09:36:24;;;;;;;1.95;1.60;;;3.00;99.90;;;;;;4983959;28;20268;-67
2022/12/05 09:38:52;;;;;;;2.15;1.55;;;3.00;99.90;;;;;;4980853;28;20100;-68
2022/12/05 09:42:06;;;;;;;3.42;1.70;;;3.00;99.90;;;;;;4981535;28;20821;-68
2022/12/05 09:44:48;;;;;;;1.88;1.67;;;2.90;99.90;;;;;;4985839;28;20041;-69
2022/12/05 09:47:52;;;;;;;1.75;1.60;;;2.90;99.90;;;;;;4984793;28;20522;-68
2022/12/05 09:50:44;;;;;;;3.15;2.10;;;2.90;99.90;;;;;;4985074;28;20057;-68
2022/12/05 09:53:29;;;;;;;4.45;1.70;;;2.90;99.90;;;;;;4986427;28;20095;-69
2022/12/05 09:56:09;;;;;;;4.72;1.88;;;2.90;99.90;;;;;;4984671;28;20112;-69
2022/12/05 09:58:53;;;;;;;5.50;2.00;;;2.90;99.90;;;;;;4986156;28;20377;-69
2022/12/05 10:01:28;;;;;;;1.73;1.50;;;2.90;99.90;;;;;;4988729;28;20430;-68
2022/12/05 10:04:04;;;;;;;1.73;1.50;;;2.90;99.90;;;;;;4985093;28;20088;-68
2022/12/05 10:06:54;;;;;;;3.85;1.63;;;2.90;99.90;;;;;;4985720;28;20240;-68
2022/12/05 10:09:35;;;;;;;1.48;1.38;;;2.90;99.90;;;;;;4985256;28;20320;-69
2022/12/05 10:12:40;;;;;;;2.08;1.55;;;2.90;99.90;;;;;;4986368;28;20077;-68
2022/12/05 10:15:13;;;;;;;1.70;1.45;;;3.00;99.90;;;;;;4988245;28;20422;-69
2022/12/05 10:17:56;;;;;;;2.38;1.70;;;3.00;99.90;;;;;;4986017;28;20050;-69
2022/12/05 10:20:35;;;;;;;2.97;1.80;;;3.00;99.90;;;;;;4984690;28;20056;-68
2022/12/05 10:23:15;;;;;;;2.35;1.85;;;3.00;99.90;;;;;;4970635;28;20073;-69
2022/12/05 10:26:06;;;;;;;1.60;1.50;;;3.00;99.90;;;;;;4984681;28;20177;-68
2022/12/05 10:28:39;;;;;;;2.88;1.48;;;3.00;99.90;;;;;;4988155;28;20546;-69
2022/12/05 10:31:12;;;;;;;2.05;1.77;;;3.00;99.90;;;;;;4986628;28;20045;-68
2022/12/05 10:33:53;;;;;;;2.40;1.77;;;3.00;99.90;;;;;;4979809;28;20223;-67
2022/12/05 10:36:19;;;;;;;2.15;1.58;;;3.00;99.90;;;;;;4989035;28;20042;-68
2022/12/05 10:38:46;;;;;;;;;;;3.10;99.90;;;;;;4983929;28;20203;-68
2022/12/05 10:41:14;;;;;;;17.40;9.47;;;3.10;99.90;;;;;;4985153;28;20615;-68
2022/12/05 10:43:43;;;;;;;4.60;3.60;;;3.10;99.90;;;;;;4985377;28;20077;-68
2022/12/05 10:46:15;;;;;;;2.88;2.58;;;3.20;99.90;;;;;;4983553;28;20453;-68
2022/12/05 10:48:43;;;;;;;3.55;2.40;;;3.20;99.90;;;;;;4985903;28;20650;-71
2022/12/05 10:51:15;;;;;;;2.00;1.80;;;3.20;99.90;;;;;;4986075;28;20257;-71
2022/12/05 10:53:48;;;;;;;2.65;2.05;;;3.30;99.90;;;;;;4987051;28;20533;-72
2022/12/05 10:56:38;;;;;;;1.88;1.58;;;3.30;99.90;;;;;;4986103;28;20071;-72
2022/12/05 10:59:07;;;;;;;3.08;1.92;;;3.40;99.90;;;;;;4988265;28;20072;-71
2022/12/05 11:01:37;;;;;;;1.90;1.70;;;3.40;99.90;;;;;;4986114;28;20053;-71
2022/12/05 11:04:22;;;;;;;2.05;1.83;;;3.40;99.90;;;;;;4984442;28;20092;-73
2022/12/05 11:06:54;;;;;;;2.78;1.80;;;3.40;99.90;;;;;;4987354;28;20080;-71
2022/12/05 11:09:30;;;;;;;2.20;2.00;;;3.40;99.90;;;;;;4985410;28;20064;-72
2022/12/05 11:12:19;;;;;;;2.15;1.77;;;3.40;99.90;;;;;;4986317;28;20046;-72
2022/12/05 11:14:56;;;;;;;2.10;1.83;;;3.40;99.90;;;;;;4982717;28;20057;-72
2022/12/05 11:17:36;;;;;;;2.78;2.25;;;3.50;99.90;;;;;;4983667;28;20061;-71
2022/12/05 11:20:22;;;;;;;2.00;1.80;;;3.50;99.90;;;;;;4985824;28;20053;-72
2022/12/05 11:22:52;;;;;;;2.22;1.90;;;3.50;99.90;;;;;;4982921;28;20535;-72
2022/12/05 11:25:32;;;;;;;4.18;2.78;;;3.50;99.90;;;;;;4984638;28;20172;-72
2022/12/05 11:28:19;;;;;;;2.72;2.10;;;3.50;99.90;;;;;;4985029;28;20275;-72
2022/12/05 11:31:09;;;;;;;2.40;2.13;;;3.60;99.90;;;;;;4984636;28;20073;-70
2022/12/05 11:33:36;;;;;;;3.05;1.95;;;3.60;99.90;;;;;;4984126;28;20058;-71
2022/12/05 11:36:16;;;;;;;2.50;1.80;;;3.60;99.90;;;;;;4984079;28;20053;-72
2022/12/05 11:38:43;;;;;;;2.67;2.28;;;3.60;99.90;;;;;;4985455;28;20378;-71
2022/12/05 11:41:13;;;;;;;3.00;2.10;;;3.60;99.90;;;;;;4969091;28;20049;-72
2022/12/05 11:44:11;;;;;;;3.67;1.90;;;3.60;99.90;;;;;;4985259;28;20065;-71
2022/12/05 11:46:49;;;;;;;2.05;1.85;;;3.60;99.90;;;;;;4983342;28;20497;-72
2022/12/05 11:49:25;;;;;;;4.03;1.73;;;3.60;99.90;;;;;;4982986;28;20285;-72
2022/12/05 11:52:17;;;;;;;2.38;2.05;;;3.70;99.90;;;;;;4982989;28;20499;-72
2022/12/05 11:54:54;;;;;;;2.47;1.70;;;3.70;99.90;;;;;;4982803;28;20049;-72
2022/12/05 11:58:02;;;;;;;3.00;2.15;;;3.70;99.90;;;;;;4985414;28;20491;-72
2022/12/05 12:00:47;;;;;;;5.72;3.35;;;3.70;99.90;;;;;;4985449;28;20385;-72
2022/12/05 12:03:56;;;;;;;3.83;2.50;;;3.80;99.90;;;;;;4984079;28;20326;-71
2022/12/05 12:06:48;;;;;;;2.38;2.17;;;3.80;99.90;;;;;;4985502;28;20060;-72
2022/12/05 12:09:15;;;;;;;2.30;1.90;;;3.90;99.90;;;;;;4983468;28;20388;-72
2022/12/05 12:11:42;;;;;;;;;;;3.90;99.90;;;;;;4983787;28;20115;-72
2022/12/05 12:14:29;;;;;;;2.60;2.20;;;4.00;99.90;;;;;;4984546;28;19951;-72
2022/12/05 12:16:59;;;;;;;;;;;4.00;99.90;;;;;;4983532;28;20053;-71
2022/12/05 12:19:32;;;;;;;2.65;2.10;;;4.10;99.90;;;;;;4984011;28;19929;-71
2022/12/05 12:22:29;;;;;;;4.13;2.70;;;4.10;99.90;;;;;;4982858;28;20052;-71
2022/12/05 12:25:24;;;;;;;3.13;1.70;;;4.20;99.90;;;;;;4981731;28;20204;-71
2022/12/05 12:28:05;;;;;;;2.97;2.35;;;4.20;99.90;;;;;;4991339;28;20220;-72
2022/12/05 12:31:09;;;;;;;1.67;1.58;;;4.30;99.90;;;;;;4980734;28;20104;-71
2022/12/05 12:33:39;;;;;;;3.20;2.28;;;4.30;99.90;;;;;;4984219;28;20056;-71
2022/12/05 12:36:06;;;;;;;3.28;2.08;;;4.30;99.90;;;;;;4980650;28;20108;-72
2022/12/05 12:39:05;;;;;;;2.25;1.80;;;4.30;99.90;;;;;;4988569;28;20149;-71
2022/12/05 12:42:00;;;;;;;2.67;1.77;;;4.30;99.90;;;;;;4984788;28;20111;-71
2022/12/05 12:44:47;;;;;;;2.88;1.55;;;4.30;99.90;;;;;;4984619;28;20374;-71
2022/12/05 12:47:23;;;;;;;2.22;1.98;;;4.30;99.90;;;;;;4981909;28;20126;-71
2022/12/05 12:50:01;;;;;;;1.95;1.60;;;4.30;99.90;;;;;;4982504;28;20354;-72
2022/12/05 12:53:03;;;;;;;2.33;1.90;;;4.30;99.90;;;;;;4982536;28;20721;-70
2022/12/05 12:55:45;;;;;;;2.10;1.88;;;4.30;99.90;;;;;;4983023;28;20487;-72
2022/12/05 12:58:12;;;;;;;2.88;2.08;;;4.30;99.90;;;;;;4985188;28;20072;-72
2022/12/05 13:00:54;;;;;;;1.80;1.70;;;4.30;99.90;;;;;;4983134;28;20045;-72
2022/12/05 13:03:27;;;;;;;2.38;1.70;;;4.30;99.90;;;;;;4984306;28;20399;-72
2022/12/05 13:06:16;;;;;;;3.65;2.17;;;4.40;99.90;;;;;;4981853;28;20042;-71
2022/12/05 13:08:52;;;;;;;1.77;1.65;;;4.40;99.90;;;;;;4984045;28;20326;-71
2022/12/05 13:11:20;;;;;;;2.42;2.03;;;4.40;99.90;;;;;;4985894;28;20294;-67
2022/12/05 13:14:08;;;;;;;3.28;1.98;;;4.50;99.90;;;;;;4986890;28;20277;-68
2022/12/05 13:16:43;;;;;;;2.72;1.85;;;4.50;99.90;;;;;;4967800;28;20050;-66
2022/12/05 13:19:36;;;;;;;2.25;1.92;;;4.50;99.90;;;;;;4986056;28;20606;-65
2022/12/05 13:22:07;;;;;;;2.75;2.15;;;4.60;99.90;;;;;;4984140;28;20283;-66
2022/12/05 13:24:45;;;;;;;2.05;1.85;;;4.60;99.90;;;;;;4980085;28;20049;-66
2022/12/05 13:27:42;;;;;;;2.25;1.88;;;4.70;99.90;;;;;;4986961;28;20412;-66
2022/12/05 13:30:17;;;;;;;2.03;1.83;;;4.80;99.90;;;;;;4987240;28;20057;-67
2022/12/05 13:32:44;;;;;;;3.20;2.47;;;4.80;99.90;;;;;;4983570;28;20047;-66
2022/12/05 13:43:54;;;;;;;5.03;2.55;;;4.80;99.90;;;;;;4984656;28;20057;-66
2022/12/05 13:46:37;;;;;;;2.97;2.53;;;4.80;99.90;;;;;;4985691;28;20535;-65